createdAt,value
2023-02-14T00:01:15.749Z,19.33
2023-02-14T00:03:43.037Z,17.40
2023-02-14T00:06:13.341Z,18.60
2023-02-14T00:08:43.647Z,18.33
2023-02-14T00:11:11.812Z,18.80
2023-02-14T00:13:39.431Z,19.20
2023-02-14T00:16:07.053Z,17.40
2023-02-14T00:18:53.136Z,18.13
2023-02-14T00:21:21.428Z,19.70
2023-02-14T00:23:49.212Z,18.50
2023-02-14T00:26:17.162Z,19.83
2023-02-14T00:28:45.007Z,19.53
2023-02-14T00:31:13.064Z,18.67
2023-02-14T00:33:41.680Z,18.97
2023-02-14T00:36:11.126Z,19.50
2023-02-14T00:38:39.894Z,21.27
2023-02-14T00:41:07.372Z,22.87
2023-02-14T00:43:34.983Z,22.90
2023-02-14T00:46:02.372Z,20.90
2023-02-14T00:48:31.258Z,23.23
2023-02-14T00:50:58.982Z,25.40
2023-02-14T00:53:26.480Z,24.00
2023-02-14T00:55:53.760Z,21.63
2023-02-14T00:58:21.161Z,22.63
2023-02-14T01:00:48.641Z,26.70
2023-02-14T01:03:16.048Z,21.87
2023-02-14T01:05:43.289Z,20.63
2023-02-14T01:08:10.860Z,20.67
2023-02-14T01:10:38.838Z,19.07
2023-02-14T01:13:06.280Z,18.50
2023-02-14T01:15:34.148Z,18.63
2023-02-14T01:18:01.547Z,17.27
2023-02-14T01:20:28.904Z,17.67
2023-02-14T01:22:56.270Z,16.40
2023-02-14T01:25:23.636Z,16.57
2023-02-14T01:27:51.182Z,16.50
2023-02-14T01:30:18.804Z,15.93
2023-02-14T01:32:46.258Z,16.17
2023-02-14T01:35:13.937Z,17.30
2023-02-14T01:37:41.671Z,17.23
2023-02-14T01:40:10.467Z,17.57
2023-02-14T01:42:38.193Z,17.40
2023-02-14T01:45:10.230Z,17.27
2023-02-14T01:47:40.208Z,17.03
2023-02-14T01:50:13.956Z,18.77
2023-02-14T01:52:52.972Z,19.37
2023-02-14T01:55:22.434Z,19.13
2023-02-14T01:57:59.497Z,19.10
2023-02-14T02:00:45.596Z,21.37
2023-02-14T02:03:14.438Z,19.13
2023-02-14T02:05:44.083Z,18.67
2023-02-14T02:08:11.997Z,19.63
2023-02-14T02:10:39.326Z,17.13
2023-02-14T02:13:08.048Z,15.07
2023-02-14T02:15:39.351Z,15.73
2023-02-14T02:18:15.591Z,16.57
2023-02-14T02:21:01.807Z,14.90
2023-02-14T02:23:35.435Z,15.00
2023-02-14T02:26:21.611Z,15.30
2023-02-14T02:29:07.594Z,15.27
2023-02-14T02:31:53.929Z,16.50
2023-02-14T02:34:40.698Z,15.53
2023-02-14T02:37:08.363Z,16.20
2023-02-14T02:39:48.510Z,16.90
2023-02-14T02:42:15.808Z,15.53
2023-02-14T02:44:43.610Z,17.13
2023-02-14T02:47:20.009Z,17.90
2023-02-14T02:50:09.447Z,17.20
2023-02-14T02:52:59.964Z,18.07
2023-02-14T02:55:51.750Z,18.20
2023-02-14T02:58:20.561Z,19.00
2023-02-14T03:00:49.738Z,17.90
2023-02-14T03:03:36.230Z,18.73
2023-02-14T03:06:03.538Z,17.57
2023-02-14T03:08:30.802Z,19.27
2023-02-14T03:10:58.532Z,17.80
2023-02-14T03:13:32.601Z,18.47
2023-02-14T03:16:06.170Z,19.07
2023-02-14T03:18:40.574Z,17.53
2023-02-14T03:21:10.987Z,17.93
2023-02-14T03:23:58.653Z,17.50
2023-02-14T03:26:34.858Z,17.67
2023-02-14T03:29:08.301Z,17.07
2023-02-14T03:31:48.331Z,16.80
2023-02-14T03:34:34.659Z,18.17
2023-02-14T03:37:04.440Z,17.87
2023-02-14T03:39:55.002Z,18.63
2023-02-14T03:42:26.113Z,19.03
2023-02-14T03:44:55.594Z,18.53
2023-02-14T03:47:25.302Z,19.43
2023-02-14T03:49:56.765Z,19.60
2023-02-14T03:52:25.692Z,20.13
2023-02-14T03:54:54.869Z,21.30
2023-02-14T03:57:27.762Z,20.80
2023-02-14T03:59:56.502Z,19.50
2023-02-14T04:02:34.009Z,19.97
2023-02-14T04:05:03.258Z,19.67
2023-02-14T04:07:31.492Z,20.67
2023-02-14T04:09:59.864Z,19.37
2023-02-14T04:12:37.809Z,19.30
2023-02-14T04:15:06.922Z,19.13
2023-02-14T04:17:53.275Z,18.70
2023-02-14T04:20:22.333Z,19.53
2023-02-14T04:22:51.914Z,19.97
2023-02-14T04:25:20.778Z,21.77
2023-02-14T04:27:49.628Z,20.47
2023-02-14T04:30:18.506Z,21.47
2023-02-14T04:32:46.827Z,20.87
2023-02-14T04:35:14.901Z,21.03
2023-02-14T04:37:43.602Z,21.43
2023-02-14T04:40:11.639Z,22.23
2023-02-14T04:42:39.672Z,21.77
2023-02-14T04:45:07.983Z,21.23
2023-02-14T04:47:36.773Z,21.13
2023-02-14T04:50:05.169Z,21.27
2023-02-14T04:52:33.192Z,19.97
2023-02-14T04:55:01.073Z,20.47
2023-02-14T04:57:28.450Z,18.10
2023-02-14T04:59:55.710Z,18.40
2023-02-14T05:02:23.078Z,17.90
2023-02-14T05:04:53.504Z,18.47
2023-02-14T05:07:20.858Z,18.97
2023-02-14T05:09:49.330Z,18.73
2023-02-14T05:12:17.500Z,20.77
2023-02-14T05:14:45.327Z,20.47
2023-02-14T05:17:13.040Z,20.37
2023-02-14T05:19:40.397Z,19.23
2023-02-14T05:22:07.854Z,24.43
2023-02-14T05:24:35.246Z,24.00
2023-02-14T05:27:02.945Z,21.87
2023-02-14T05:29:30.485Z,21.20
2023-02-14T05:31:57.958Z,21.20
2023-02-14T05:34:26.739Z,20.53
2023-02-14T05:36:55.297Z,21.93
2023-02-14T05:39:22.792Z,19.43
2023-02-14T05:41:50.656Z,18.47
2023-02-14T05:44:18.058Z,18.73
2023-02-14T05:46:45.602Z,20.57
2023-02-14T05:49:12.976Z,20.10
2023-02-14T05:51:40.352Z,19.90
2023-02-14T05:54:09.420Z,20.70
2023-02-14T05:56:38.651Z,20.07
2023-02-14T05:59:06.052Z,20.37
2023-02-14T06:01:33.665Z,20.53
2023-02-14T06:04:02.019Z,19.03
2023-02-14T06:06:29.940Z,20.27
2023-02-14T06:08:57.633Z,20.13
2023-02-14T06:11:25.059Z,19.73
2023-02-14T06:13:52.329Z,19.73
2023-02-14T06:16:19.811Z,19.60
2023-02-14T06:18:47.195Z,19.73
2023-02-14T06:21:14.892Z,20.10
2023-02-14T06:23:42.181Z,22.53
2023-02-14T06:26:09.559Z,20.70
2023-02-14T06:28:36.864Z,19.83
2023-02-14T06:31:04.678Z,20.63
2023-02-14T06:33:32.308Z,20.83
2023-02-14T06:36:00.941Z,21.17
2023-02-14T06:38:28.413Z,19.33
2023-02-14T06:40:55.778Z,20.50
2023-02-14T06:43:23.092Z,21.50
2023-02-14T06:45:50.436Z,21.03
2023-02-14T06:48:18.776Z,23.03
2023-02-14T06:50:47.328Z,23.13
2023-02-14T06:53:14.765Z,22.97
2023-02-14T06:55:43.834Z,20.83
2023-02-14T06:58:11.327Z,20.37
2023-02-14T07:00:39.787Z,21.97
2023-02-14T07:03:07.839Z,20.13
2023-02-14T07:05:35.480Z,21.57
2023-02-14T07:08:02.853Z,20.17
2023-02-14T07:10:30.467Z,17.93
2023-02-14T07:12:57.844Z,19.73
2023-02-14T07:15:25.414Z,20.00
2023-02-14T07:17:52.992Z,20.30
2023-02-14T07:20:20.735Z,21.23
2023-02-14T07:22:48.185Z,23.60
2023-02-14T07:25:15.925Z,25.40
2023-02-14T07:27:43.323Z,24.30
2023-02-14T07:30:11.603Z,21.90
2023-02-14T07:32:39.927Z,25.90
2023-02-14T07:35:07.932Z,21.73
2023-02-14T07:37:36.065Z,22.97
2023-02-14T07:40:08.751Z,23.60
2023-02-14T07:42:40.067Z,22.93
2023-02-14T07:45:20.704Z,21.23
2023-02-14T07:47:50.184Z,19.00
2023-02-14T07:50:18.052Z,22.40
2023-02-14T07:52:46.055Z,24.07
2023-02-14T07:55:13.723Z,25.03
2023-02-14T07:57:41.346Z,25.73
2023-02-14T08:00:09.302Z,25.10
2023-02-14T08:02:37.075Z,27.80
2023-02-14T08:05:05.125Z,25.50
2023-02-14T08:07:33.367Z,24.13
2023-02-14T08:10:01.456Z,22.50
2023-02-14T08:12:47.601Z,21.90
2023-02-14T08:15:34.023Z,19.03
2023-02-14T08:18:01.439Z,18.67
2023-02-14T08:20:28.769Z,20.03
2023-02-14T08:22:56.267Z,23.93
2023-02-14T08:25:23.620Z,27.23
2023-02-14T08:27:50.968Z,22.80
2023-02-14T08:30:18.610Z,22.30
2023-02-14T08:32:46.264Z,19.30
2023-02-14T08:35:15.052Z,19.77
2023-02-14T08:37:42.431Z,20.90
2023-02-14T08:40:10.894Z,20.47
2023-02-14T08:42:38.351Z,19.53
2023-02-14T08:45:05.888Z,21.00
2023-02-14T08:47:38.714Z,20.87
2023-02-14T08:50:07.189Z,18.90
2023-02-14T08:52:34.785Z,19.43
2023-02-14T08:55:02.995Z,19.17
2023-02-14T08:57:30.564Z,21.33
2023-02-14T08:59:57.971Z,20.73
2023-02-14T09:02:25.508Z,20.10
2023-02-14T09:04:52.963Z,20.47
2023-02-14T09:07:21.031Z,19.57
2023-02-14T09:09:48.668Z,20.13
2023-02-14T09:12:16.201Z,21.40
2023-02-14T09:14:44.631Z,19.97
2023-02-14T09:17:12.463Z,20.00
2023-02-14T09:19:40.378Z,20.40
2023-02-14T09:22:09.221Z,22.30
2023-02-14T09:24:38.507Z,20.03
2023-02-14T09:27:06.558Z,21.63
2023-02-14T09:29:34.306Z,22.10
2023-02-14T09:32:02.735Z,21.53
2023-02-14T09:34:30.241Z,21.23
2023-02-14T09:36:57.865Z,23.07
2023-02-14T09:39:26.424Z,23.77
2023-02-14T09:42:13.785Z,23.23
2023-02-14T09:44:44.355Z,23.10
2023-02-14T09:47:31.828Z,23.87
2023-02-14T09:50:00.325Z,23.33
2023-02-14T09:52:29.536Z,24.93
2023-02-14T09:54:59.636Z,26.77
2023-02-14T09:57:27.597Z,27.13
2023-02-14T09:59:55.886Z,26.17
2023-02-14T10:02:32.246Z,26.17
2023-02-14T10:05:27.334Z,26.77
2023-02-14T10:07:55.689Z,27.63
2023-02-14T10:10:31.570Z,26.80
2023-02-14T10:13:18.685Z,25.90
2023-02-14T10:15:47.249Z,26.90
2023-02-14T10:18:18.301Z,25.83
2023-02-14T10:20:47.195Z,26.87
2023-02-14T10:23:27.256Z,27.60
2023-02-14T10:26:02.757Z,27.57
2023-02-14T10:28:38.427Z,27.30
2023-02-14T10:31:23.198Z,26.10
2023-02-14T10:34:26.101Z,25.63
2023-02-14T10:37:02.670Z,26.00
2023-02-14T10:39:30.029Z,23.23
2023-02-14T10:42:06.581Z,20.67
2023-02-14T10:44:45.770Z,18.03
2023-02-14T10:47:27.744Z,18.87
2023-02-14T10:50:09.496Z,17.50
2023-02-14T10:52:59.064Z,17.20
2023-02-14T10:55:38.777Z,17.83
2023-02-14T10:58:07.682Z,17.20
2023-02-14T11:00:40.032Z,17.93
2023-02-14T11:03:09.027Z,15.57
2023-02-14T11:05:46.491Z,17.37
2023-02-14T11:08:17.180Z,16.63
2023-02-14T11:10:44.701Z,16.47
2023-02-14T11:13:29.515Z,16.00
2023-02-14T11:16:00.560Z,15.37
2023-02-14T11:18:33.583Z,14.70
2023-02-14T11:21:04.780Z,15.17
2023-02-14T11:23:40.114Z,15.37
2023-02-14T11:26:25.790Z,15.13
2023-02-14T11:29:04.980Z,15.63
2023-02-14T11:31:35.600Z,14.37
2023-02-14T11:34:05.929Z,15.60
2023-02-14T11:36:39.960Z,14.93
2023-02-14T11:39:21.801Z,14.87
2023-02-14T11:41:49.519Z,15.87
2023-02-14T11:44:22.720Z,15.10
2023-02-14T11:46:53.377Z,15.00
2023-02-14T11:49:28.817Z,13.27
2023-02-14T11:51:59.531Z,14.30
2023-02-14T11:54:32.978Z,16.03
2023-02-14T11:57:06.173Z,15.00
2023-02-14T11:59:36.099Z,14.30
2023-02-14T12:02:05.670Z,15.53
2023-02-14T12:04:38.112Z,16.20
2023-02-14T12:07:27.058Z,15.33
2023-02-14T12:10:06.810Z,15.33
2023-02-14T12:12:35.906Z,14.80
2023-02-14T12:15:22.019Z,14.77
2023-02-14T12:17:51.449Z,14.50
2023-02-14T12:20:24.104Z,14.27
2023-02-14T12:22:56.432Z,14.27
2023-02-14T12:25:26.125Z,14.03
2023-02-14T12:27:53.374Z,13.63
2023-02-14T12:30:23.217Z,13.75
2023-02-14T12:32:51.754Z,13.82
2023-02-14T12:35:31.053Z,13.48
2023-02-14T12:38:04.781Z,14.52
2023-02-14T12:40:44.491Z,12.85
2023-02-14T12:43:18.192Z,12.57
2023-02-14T12:46:01.254Z,12.75
2023-02-14T12:48:34.753Z,12.80
2023-02-14T12:51:02.338Z,12.18
2023-02-14T12:53:36.389Z,11.77
2023-02-14T12:56:03.665Z,11.77
2023-02-14T12:58:41.005Z,12.18
2023-02-14T13:01:09.042Z,12.77
2023-02-14T13:03:39.495Z,12.60
2023-02-14T13:06:19.089Z,12.80
2023-02-14T13:09:01.675Z,11.98
2023-02-14T13:11:36.555Z,11.65
2023-02-14T13:14:22.667Z,11.85
2023-02-14T13:17:08.798Z,10.80
2023-02-14T13:19:45.298Z,10.38
2023-02-14T13:22:16.191Z,9.90
2023-02-14T13:24:44.131Z,9.82
2023-02-14T13:27:15.158Z,9.38
2023-02-14T13:29:47.819Z,6.78
2023-02-14T13:32:17.809Z,7.32
2023-02-14T13:34:47.151Z,4.85
2023-02-14T13:37:15.887Z,4.65
2023-02-14T13:39:44.998Z,3.20
2023-02-14T13:42:12.632Z,2.78
2023-02-14T13:44:42.834Z,6.28
2023-02-14T13:47:22.358Z,1.80
2023-02-14T13:49:51.760Z,1.00
2023-02-14T13:52:37.641Z,1.08
2023-02-14T13:55:07.969Z,1.67
2023-02-14T13:57:41.394Z,2.50
2023-02-14T14:00:18.014Z,2.63
2023-02-14T14:02:46.063Z,2.90
2023-02-14T14:05:43.758Z,3.05
2023-02-14T14:08:23.778Z,2.65
2023-02-14T14:10:55.458Z,1.90
2023-02-14T14:13:41.113Z,2.70
2023-02-14T14:16:28.769Z,3.20
2023-02-14T14:19:08.522Z,3.20
2023-02-14T14:21:36.186Z,2.80
2023-02-14T14:24:22.675Z,1.90
2023-02-14T14:27:02.658Z,2.08
2023-02-14T14:29:35.595Z,2.08
2023-02-14T14:32:32.333Z,2.08
2023-02-14T14:35:01.370Z,1.92
2023-02-14T14:37:33.539Z,1.52
2023-02-14T14:40:03.206Z,1.35
2023-02-14T14:42:33.173Z,1.40
2023-02-14T14:45:02.044Z,1.35
2023-02-14T14:47:32.754Z,1.60
2023-02-14T14:50:04.506Z,3.60
2023-02-14T14:52:37.927Z,2.13
2023-02-14T14:55:07.050Z,1.90
2023-02-14T14:57:36.685Z,1.63
2023-02-14T15:00:19.655Z,1.88
2023-02-14T15:03:01.855Z,1.65
2023-02-14T15:05:32.743Z,1.65
2023-02-14T15:08:13.681Z,1.58
2023-02-14T15:10:41.238Z,1.33
2023-02-14T15:13:30.628Z,1.40
2023-02-14T15:15:58.460Z,1.30
2023-02-14T15:18:25.897Z,1.40
2023-02-14T15:20:53.813Z,1.40
2023-02-14T15:23:23.101Z,1.30
2023-02-14T15:25:50.775Z,3.88
2023-02-14T15:28:28.811Z,3.85
2023-02-14T15:30:57.965Z,5.18
2023-02-14T15:33:25.546Z,6.40
2023-02-14T15:35:53.460Z,6.85
2023-02-14T15:38:22.034Z,6.50
2023-02-14T15:40:49.570Z,6.60
2023-02-14T15:43:25.290Z,6.30
2023-02-14T15:45:58.121Z,6.20
2023-02-14T15:48:29.053Z,7.10
2023-02-14T15:50:59.282Z,6.28
2023-02-14T15:53:27.095Z,6.57
2023-02-14T15:55:55.157Z,8.05
2023-02-14T15:58:24.377Z,8.70
2023-02-14T16:00:52.518Z,7.22
2023-02-14T16:03:21.394Z,8.35
2023-02-14T16:05:49.674Z,9.15
2023-02-14T16:08:23.412Z,11.90
2023-02-14T16:11:03.370Z,12.40
2023-02-14T16:13:32.636Z,13.10
2023-02-14T16:16:07.847Z,13.50
2023-02-14T16:18:38.915Z,12.80
2023-02-14T16:21:28.175Z,12.70
2023-02-14T16:24:09.495Z,13.07
2023-02-14T16:26:47.860Z,13.53
2023-02-14T16:29:17.736Z,13.80
2023-02-14T16:32:14.080Z,14.40
2023-02-14T16:34:37.882Z,13.90
2023-02-14T16:37:20.599Z,14.63
2023-02-14T16:39:48.620Z,15.13
2023-02-14T16:42:19.725Z,14.83
2023-02-14T16:44:47.622Z,17.73
2023-02-14T16:47:15.860Z,19.67
2023-02-14T16:49:43.210Z,22.03
2023-02-14T16:52:23.996Z,21.13
2023-02-14T16:54:51.726Z,22.10
2023-02-14T16:57:21.257Z,21.40
2023-02-14T16:59:49.823Z,22.37
2023-02-14T17:02:19.515Z,25.37
2023-02-14T17:04:48.714Z,27.80
2023-02-14T17:07:16.851Z,27.47
2023-02-14T17:09:49.313Z,25.30
2023-02-14T17:12:20.702Z,21.60
2023-02-14T17:14:53.767Z,23.53
2023-02-14T17:17:21.965Z,23.77
2023-02-14T17:19:52.389Z,22.27
2023-02-14T17:22:20.191Z,21.17
2023-02-14T17:24:47.933Z,21.60
2023-02-14T17:27:15.690Z,20.23
2023-02-14T17:29:42.961Z,20.57
2023-02-14T17:32:13.816Z,19.87
2023-02-14T17:34:41.834Z,20.60
2023-02-14T17:37:09.394Z,20.43
2023-02-14T17:39:36.722Z,20.60
2023-02-14T17:42:04.018Z,21.67
2023-02-14T17:44:35.909Z,20.93
2023-02-14T17:47:04.208Z,21.67
2023-02-14T17:49:31.909Z,22.63
2023-02-14T17:51:59.236Z,21.73
2023-02-14T17:54:26.549Z,20.07
2023-02-14T17:56:53.957Z,17.63
2023-02-14T17:59:21.425Z,18.37
2023-02-14T18:01:49.138Z,18.50
2023-02-14T18:04:16.527Z,17.93
2023-02-14T18:06:44.123Z,18.60
2023-02-14T18:09:11.425Z,18.67
2023-02-14T18:11:40.695Z,21.47
2023-02-14T18:14:08.174Z,41.30
2023-02-14T18:16:38.780Z,33.40
2023-02-14T18:19:07.261Z,29.40
2023-02-14T18:21:36.224Z,20.50
2023-02-14T18:24:04.082Z,43.30
2023-02-14T18:26:31.604Z,47.33
2023-02-14T18:28:59.134Z,34.43
2023-02-14T18:31:26.977Z,31.93
2023-02-14T18:33:55.082Z,25.33
2023-02-14T18:36:25.684Z,19.60
2023-02-14T18:39:01.233Z,19.03
2023-02-14T18:41:29.624Z,21.00
2023-02-14T18:43:57.242Z,20.80
2023-02-14T18:46:26.366Z,19.50
2023-02-14T18:48:53.880Z,18.87
2023-02-14T18:51:22.699Z,19.63
2023-02-14T18:53:54.530Z,18.87
2023-02-14T18:56:23.016Z,19.83
2023-02-14T18:58:52.904Z,19.87
2023-02-14T19:01:25.207Z,20.53
2023-02-14T19:03:54.600Z,20.17
2023-02-14T19:06:23.551Z,19.60
2023-02-14T19:08:51.240Z,20.00
2023-02-14T19:11:31.590Z,20.03
2023-02-14T19:14:00.258Z,20.20
2023-02-14T19:16:32.118Z,21.30
2023-02-14T19:19:02.699Z,24.20
2023-02-14T19:21:34.840Z,23.60
2023-02-14T19:24:08.424Z,24.50
2023-02-14T19:26:39.868Z,24.47
2023-02-14T19:29:09.696Z,24.60
2023-02-14T19:31:38.434Z,27.13
2023-02-14T19:34:06.576Z,26.27
2023-02-14T19:36:36.449Z,26.90
2023-02-14T19:39:04.508Z,25.43
2023-02-14T19:41:34.644Z,24.57
2023-02-14T19:44:03.024Z,23.70
2023-02-14T19:46:30.541Z,23.03
2023-02-14T19:48:58.218Z,21.83
2023-02-14T19:51:27.804Z,22.83
2023-02-14T19:53:55.829Z,19.83
2023-02-14T19:56:24.495Z,20.97
2023-02-14T19:58:52.308Z,21.03
2023-02-14T20:01:25.884Z,20.73
2023-02-14T20:03:53.891Z,21.10
2023-02-14T20:06:23.143Z,20.17
2023-02-14T20:08:50.913Z,20.97
2023-02-14T20:11:30.591Z,19.50
2023-02-14T20:13:58.670Z,17.60
2023-02-14T20:16:27.043Z,20.77
2023-02-14T20:18:55.028Z,20.27
2023-02-14T20:21:28.421Z,21.23
2023-02-14T20:24:01.405Z,21.47
2023-02-14T20:26:33.061Z,21.13
2023-02-14T20:29:01.479Z,22.93
2023-02-14T20:31:28.987Z,26.30
2023-02-14T20:33:56.929Z,26.63
2023-02-14T20:36:24.681Z,25.10
2023-02-14T20:39:02.695Z,24.93
2023-02-14T20:41:30.296Z,22.80
2023-02-14T20:44:04.366Z,29.50
2023-02-14T20:46:32.091Z,33.37
2023-02-14T20:48:59.471Z,32.87
2023-02-14T20:51:27.240Z,30.60
2023-02-14T20:53:54.630Z,23.60
2023-02-14T20:56:24.748Z,20.67
2023-02-14T20:58:52.661Z,24.83
2023-02-14T21:01:24.491Z,22.57
2023-02-14T21:03:52.847Z,23.33
2023-02-14T21:06:21.499Z,20.13
2023-02-14T21:08:49.510Z,19.80
2023-02-14T21:11:18.655Z,137.20
2023-02-14T21:13:46.384Z,63.03
2023-02-14T21:16:15.536Z,27.23
2023-02-14T21:18:48.010Z,24.13
2023-02-14T21:21:16.621Z,23.87
2023-02-14T21:23:43.912Z,25.00
2023-02-14T21:26:11.206Z,24.83
2023-02-14T21:28:38.555Z,26.63
2023-02-14T21:31:07.030Z,26.63
2023-02-14T21:33:34.343Z,25.33
2023-02-14T21:36:07.792Z,24.33
2023-02-14T21:38:35.623Z,25.57
2023-02-14T21:41:04.897Z,25.97
2023-02-14T21:43:36.564Z,29.30
2023-02-14T21:46:05.144Z,27.30
2023-02-14T21:48:51.604Z,26.00
2023-02-14T21:51:19.426Z,25.97
2023-02-14T21:53:47.273Z,24.73
2023-02-14T21:56:18.068Z,24.33
2023-02-14T21:58:45.552Z,22.67
2023-02-14T22:01:17.186Z,24.03
2023-02-14T22:03:44.957Z,24.73
2023-02-14T22:06:13.557Z,24.33
2023-02-14T22:08:41.790Z,22.10
2023-02-14T22:11:16.186Z,22.57
2023-02-14T22:13:44.464Z,20.73
2023-02-14T22:16:13.597Z,20.37
2023-02-14T22:18:42.321Z,21.23
2023-02-14T22:21:11.658Z,20.57
2023-02-14T22:23:39.697Z,20.73
2023-02-14T22:26:23.737Z,21.50
2023-02-14T22:28:53.841Z,19.70
2023-02-14T22:31:21.472Z,18.83
2023-02-14T22:33:49.412Z,19.20
2023-02-14T22:36:16.936Z,20.33
2023-02-14T22:38:44.753Z,20.13
2023-02-14T22:41:16.676Z,21.33
2023-02-14T22:43:44.509Z,20.63
2023-02-14T22:46:13.676Z,21.17
2023-02-14T22:48:41.362Z,20.30
2023-02-14T22:51:13.799Z,20.30
2023-02-14T22:53:41.107Z,20.33
2023-02-14T22:56:16.261Z,18.93
2023-02-14T22:58:44.207Z,18.97
2023-02-14T23:01:19.475Z,20.67
2023-02-14T23:03:46.821Z,20.03
2023-02-14T23:06:14.315Z,19.73
2023-02-14T23:08:42.580Z,20.73
2023-02-14T23:11:11.384Z,19.37
2023-02-14T23:13:57.730Z,19.43
2023-02-14T23:16:44.305Z,19.17
2023-02-14T23:19:37.259Z,18.80
2023-02-14T23:22:06.544Z,18.87
2023-02-14T23:24:34.044Z,18.53
2023-02-14T23:27:01.861Z,17.73
2023-02-14T23:29:29.529Z,18.33
2023-02-14T23:31:56.981Z,18.70
2023-02-14T23:34:31.698Z,18.67
2023-02-14T23:36:58.968Z,18.53
2023-02-14T23:39:26.502Z,20.50
2023-02-14T23:41:54.339Z,18.37
2023-02-14T23:44:22.966Z,18.93
2023-02-14T23:46:52.025Z,18.50
2023-02-14T23:49:19.562Z,19.07
2023-02-14T23:51:49.462Z,19.50
2023-02-14T23:54:17.538Z,19.77
2023-02-14T23:56:46.030Z,17.40
2023-02-14T23:59:14.504Z,17.70
